createdAt,value
2022-07-28T00:01:41.848Z,82.80
2022-07-28T00:04:10.155Z,82.80
2022-07-28T00:06:38.376Z,82.80
2022-07-28T00:09:06.615Z,83.00
2022-07-28T00:11:34.707Z,83.00
2022-07-28T00:14:19.215Z,83.10
2022-07-28T00:16:48.770Z,83.20
2022-07-28T00:19:17.013Z,83.30
2022-07-28T00:21:45.164Z,83.30
2022-07-28T00:24:13.535Z,84.20
2022-07-28T00:26:41.944Z,83.60
2022-07-28T00:29:10.201Z,83.70
2022-07-28T00:31:38.384Z,83.70
2022-07-28T00:34:08.142Z,83.80
2022-07-28T00:36:36.231Z,83.90
2022-07-28T00:39:04.579Z,84.10
2022-07-28T00:41:32.668Z,84.10
2022-07-28T00:44:00.965Z,84.20
2022-07-28T00:46:30.010Z,84.40
2022-07-28T00:48:58.185Z,84.40
2022-07-28T00:51:29.549Z,84.50
2022-07-28T00:53:58.345Z,84.60
2022-07-28T00:56:26.521Z,84.70
2022-07-28T00:58:54.773Z,84.70
2022-07-28T01:01:24.342Z,84.80
2022-07-28T01:03:54.961Z,84.90
2022-07-28T01:06:43.679Z,85.00
2022-07-28T01:09:20.892Z,85.30
2022-07-28T01:11:59.081Z,85.30
2022-07-28T01:14:35.183Z,85.50
2022-07-28T01:17:11.020Z,86.20
2022-07-28T01:19:44.641Z,85.60
2022-07-28T01:22:18.200Z,85.60
2022-07-28T01:24:52.499Z,85.80
2022-07-28T01:27:36.384Z,85.80
2022-07-28T01:30:11.823Z,85.80
2022-07-28T01:32:45.304Z,85.80
2022-07-28T01:35:18.180Z,85.90
2022-07-28T01:37:49.661Z,85.90
2022-07-28T01:40:21.807Z,86.00
2022-07-28T01:42:55.305Z,86.20
2022-07-28T01:45:26.173Z,87.20
2022-07-28T01:47:58.253Z,86.50
2022-07-28T01:50:28.089Z,86.70
2022-07-28T01:52:58.050Z,86.70
2022-07-28T01:55:27.341Z,86.90
2022-07-28T01:57:57.923Z,87.00
2022-07-28T02:00:27.772Z,87.10
2022-07-28T02:02:59.167Z,87.20
2022-07-28T02:05:28.510Z,87.20
2022-07-28T02:07:58.669Z,87.20
2022-07-28T02:10:27.296Z,87.30
2022-07-28T02:12:57.580Z,87.30
2022-07-28T02:15:28.107Z,87.40
2022-07-28T02:17:58.872Z,87.80
2022-07-28T02:20:27.597Z,87.90
2022-07-28T02:22:56.362Z,87.90
2022-07-28T02:25:24.692Z,88.00
2022-07-28T02:27:59.665Z,88.10
2022-07-28T02:30:35.476Z,88.20
2022-07-28T02:33:10.618Z,88.10
2022-07-28T02:35:45.964Z,88.30
2022-07-28T02:38:22.882Z,88.40
2022-07-28T02:40:54.973Z,88.60
2022-07-28T02:43:44.986Z,88.70
2022-07-28T02:46:20.326Z,88.80
2022-07-28T02:48:54.868Z,89.00
2022-07-28T02:51:26.120Z,89.30
2022-07-28T02:53:54.717Z,89.40
2022-07-28T02:56:24.634Z,89.50
2022-07-28T02:58:53.933Z,89.50
2022-07-28T03:01:22.981Z,89.50
2022-07-28T03:03:55.429Z,89.60
2022-07-28T03:06:28.371Z,90.20
2022-07-28T03:08:57.358Z,89.80
2022-07-28T03:11:25.501Z,89.90
2022-07-28T03:13:53.655Z,89.90
2022-07-28T03:16:21.838Z,90.00
2022-07-28T03:18:52.920Z,90.00
2022-07-28T03:21:21.112Z,90.10
2022-07-28T03:23:50.929Z,90.10
2022-07-28T03:26:25.036Z,90.20
2022-07-28T03:28:54.435Z,90.30
2022-07-28T03:31:23.699Z,90.40
2022-07-28T03:33:53.525Z,90.50
2022-07-28T03:36:27.469Z,90.90
2022-07-28T03:39:01.803Z,90.80
2022-07-28T03:41:31.344Z,90.90
2022-07-28T03:44:02.059Z,90.90
2022-07-28T03:46:30.268Z,90.90
2022-07-28T03:48:59.941Z,91.00
2022-07-28T03:51:29.611Z,91.00
2022-07-28T03:53:57.755Z,91.00
2022-07-28T03:56:25.905Z,91.10
2022-07-28T03:58:54.026Z,91.10
2022-07-28T04:01:22.259Z,91.60
2022-07-28T04:03:50.385Z,91.30
2022-07-28T04:06:20.084Z,91.40
2022-07-28T04:08:48.202Z,91.60
2022-07-28T04:11:16.344Z,91.70
2022-07-28T04:13:44.458Z,91.70
2022-07-28T04:16:12.548Z,91.70
2022-07-28T04:18:40.707Z,91.70
2022-07-28T04:21:08.821Z,91.60
2022-07-28T04:23:38.380Z,91.50
2022-07-28T04:26:06.680Z,91.40
2022-07-28T04:28:34.877Z,91.30
2022-07-28T04:31:03.124Z,91.30
2022-07-28T04:33:31.733Z,91.20
2022-07-28T04:36:01.613Z,91.20
2022-07-28T04:38:30.197Z,91.00
2022-07-28T04:40:59.764Z,91.00
2022-07-28T04:43:28.032Z,91.00
2022-07-28T04:45:56.372Z,91.00
2022-07-28T04:48:25.048Z,91.00
2022-07-28T04:50:53.728Z,91.10
2022-07-28T04:53:22.562Z,91.10
2022-07-28T04:55:52.625Z,91.20
2022-07-28T04:58:24.969Z,91.20
2022-07-28T05:00:53.644Z,91.20
2022-07-28T05:03:22.333Z,91.30
2022-07-28T05:05:54.008Z,91.30
2022-07-28T05:08:25.542Z,91.30
2022-07-28T05:10:55.278Z,91.40
2022-07-28T05:13:28.978Z,91.40
2022-07-28T05:16:00.018Z,91.40
2022-07-28T05:18:28.171Z,91.40
2022-07-28T05:20:56.249Z,91.40
2022-07-28T05:23:24.368Z,91.50
2022-07-28T05:25:52.656Z,91.60
2022-07-28T05:28:20.829Z,91.60
2022-07-28T05:30:50.461Z,91.60
2022-07-28T05:33:18.643Z,91.60
2022-07-28T05:35:54.367Z,91.50
2022-07-28T05:38:23.015Z,91.50
2022-07-28T05:40:51.766Z,91.50
2022-07-28T05:43:20.404Z,91.50
2022-07-28T05:45:49.941Z,91.50
2022-07-28T05:48:19.460Z,91.50
2022-07-28T05:50:47.699Z,91.50
2022-07-28T05:53:15.930Z,91.60
2022-07-28T05:56:00.418Z,91.70
2022-07-28T05:58:30.358Z,91.70
2022-07-28T06:01:02.170Z,91.70
2022-07-28T06:03:32.387Z,91.70
2022-07-28T06:06:15.059Z,91.70
2022-07-28T06:08:46.368Z,91.70
2022-07-28T06:11:21.661Z,91.70
2022-07-28T06:13:51.963Z,91.70
2022-07-28T06:16:22.910Z,91.70
2022-07-28T06:18:51.716Z,91.70
2022-07-28T06:21:19.936Z,91.80
2022-07-28T06:23:48.071Z,91.70
2022-07-28T06:26:16.341Z,91.50
2022-07-28T06:28:44.452Z,91.40
2022-07-28T06:31:13.390Z,91.50
2022-07-28T06:33:42.941Z,91.60
2022-07-28T06:36:11.061Z,91.50
2022-07-28T06:38:39.238Z,91.50
2022-07-28T06:41:07.607Z,91.50
2022-07-28T06:43:38.977Z,91.40
2022-07-28T06:46:07.435Z,91.30
2022-07-28T06:48:37.751Z,91.40
2022-07-28T06:51:07.454Z,91.30
2022-07-28T06:53:35.736Z,91.20
2022-07-28T06:56:05.379Z,91.10
2022-07-28T06:58:34.169Z,90.80
2022-07-28T07:01:07.321Z,90.60
2022-07-28T07:03:36.012Z,90.70
2022-07-28T07:06:04.271Z,90.70
2022-07-28T07:08:33.868Z,90.90
2022-07-28T07:11:02.328Z,90.90
2022-07-28T07:13:30.530Z,90.80
2022-07-28T07:15:58.811Z,90.70
2022-07-28T07:18:27.385Z,90.50
2022-07-28T07:20:57.702Z,90.10
2022-07-28T07:23:25.881Z,90.10
2022-07-28T07:25:55.688Z,90.10
2022-07-28T07:28:23.819Z,90.00
2022-07-28T07:30:52.216Z,89.90
2022-07-28T07:33:20.416Z,89.90
2022-07-28T07:35:48.756Z,89.60
2022-07-28T07:38:16.860Z,89.10
2022-07-28T07:40:45.370Z,89.30
2022-07-28T07:43:14.949Z,88.90
2022-07-28T07:45:43.116Z,88.60
2022-07-28T07:48:11.629Z,88.60
2022-07-28T07:50:40.031Z,88.60
2022-07-28T07:53:08.186Z,88.70
2022-07-28T07:55:37.746Z,88.60
2022-07-28T07:58:06.743Z,88.30
2022-07-28T08:00:36.404Z,87.90
2022-07-28T08:03:04.605Z,87.40
2022-07-28T08:05:39.387Z,87.20
2022-07-28T08:08:07.488Z,86.90
2022-07-28T08:10:35.721Z,86.70
2022-07-28T08:13:04.699Z,86.50
2022-07-28T08:15:33.680Z,86.10
2022-07-28T08:18:03.788Z,86.20
2022-07-28T08:20:32.052Z,86.20
2022-07-28T08:23:00.175Z,85.50
2022-07-28T08:25:28.997Z,85.40
2022-07-28T08:27:57.146Z,85.30
2022-07-28T08:30:30.249Z,85.10
2022-07-28T08:33:03.080Z,84.20
2022-07-28T08:35:34.007Z,84.60
2022-07-28T08:38:05.052Z,83.70
2022-07-28T08:40:33.582Z,82.40
2022-07-28T08:43:10.223Z,82.80
2022-07-28T08:45:40.681Z,83.00
2022-07-28T08:48:12.558Z,82.80
2022-07-28T08:50:40.877Z,83.00
2022-07-28T08:53:09.698Z,83.00
2022-07-28T08:55:38.719Z,82.90
2022-07-28T08:58:07.431Z,81.70
2022-07-28T09:00:35.682Z,82.30
2022-07-28T09:03:05.559Z,82.20
2022-07-28T09:05:36.987Z,82.10
2022-07-28T09:08:05.391Z,81.80
2022-07-28T09:10:33.633Z,81.30
2022-07-28T09:13:01.932Z,81.70
2022-07-28T09:15:30.310Z,81.00
2022-07-28T09:17:58.527Z,80.90
2022-07-28T09:20:29.359Z,81.00
2022-07-28T09:23:03.625Z,80.90
2022-07-28T09:25:32.775Z,79.70
2022-07-28T09:28:08.667Z,80.00
2022-07-28T09:30:53.434Z,80.00
2022-07-28T09:33:41.315Z,80.00
2022-07-28T09:36:16.795Z,80.20
2022-07-28T09:38:46.430Z,80.20
2022-07-28T09:41:18.798Z,79.60
2022-07-28T09:43:52.541Z,79.10
2022-07-28T09:46:24.768Z,78.60
2022-07-28T09:48:58.242Z,79.20
2022-07-28T09:51:28.339Z,78.90
2022-07-28T09:54:10.369Z,78.80
2022-07-28T09:56:39.431Z,78.30
2022-07-28T09:59:08.589Z,78.00
2022-07-28T10:01:53.037Z,77.60
2022-07-28T10:04:31.868Z,76.80
2022-07-28T10:07:10.073Z,77.30
2022-07-28T10:09:41.325Z,77.40
2022-07-28T10:12:16.643Z,77.10
2022-07-28T10:14:46.320Z,76.70
2022-07-28T10:17:28.419Z,76.70
2022-07-28T10:19:58.561Z,76.70
2022-07-28T10:22:30.106Z,76.70
2022-07-28T10:25:01.831Z,76.70
2022-07-28T10:27:30.577Z,76.50
2022-07-28T10:30:00.460Z,76.80
2022-07-28T10:32:30.552Z,76.70
2022-07-28T10:35:03.935Z,77.20
2022-07-28T10:37:36.038Z,77.00
2022-07-28T10:40:10.680Z,78.10
2022-07-28T10:42:40.723Z,77.50
2022-07-28T10:45:11.184Z,77.50
2022-07-28T10:47:39.393Z,77.80
2022-07-28T10:50:08.750Z,77.60
2022-07-28T10:52:59.127Z,77.80
2022-07-28T10:55:42.103Z,77.90
2022-07-28T10:58:18.397Z,77.50
2022-07-28T11:00:59.875Z,78.20
2022-07-28T11:03:42.854Z,77.50
2022-07-28T11:06:26.695Z,77.40
2022-07-28T11:08:55.218Z,77.20
2022-07-28T11:11:47.323Z,77.10
2022-07-28T11:14:37.571Z,76.60
2022-07-28T11:17:24.154Z,76.40
2022-07-28T11:20:26.684Z,76.00
2022-07-28T11:22:49.248Z,76.20
2022-07-28T11:25:22.348Z,76.10
2022-07-28T11:28:06.099Z,76.40
2022-07-28T11:30:54.573Z,75.80
2022-07-28T11:33:25.110Z,75.40
2022-07-28T11:35:59.709Z,75.10
2022-07-28T11:38:28.689Z,74.80
2022-07-28T11:40:58.133Z,74.90
2022-07-28T11:43:41.215Z,73.50
2022-07-28T11:46:25.020Z,74.20
2022-07-28T11:49:28.862Z,74.30
2022-07-28T11:52:20.933Z,74.80
2022-07-28T11:54:54.610Z,75.70
2022-07-28T11:57:27.311Z,74.30
2022-07-28T12:00:02.371Z,74.10
2022-07-28T12:02:32.841Z,74.20
2022-07-28T12:05:08.857Z,74.30
2022-07-28T12:07:40.689Z,74.30
2022-07-28T12:13:28.478Z,73.50
2022-07-28T12:15:58.342Z,74.00
2022-07-28T12:18:26.906Z,73.90
2022-07-28T12:20:55.918Z,73.90
2022-07-28T12:23:34.873Z,74.10
2022-07-28T12:26:12.249Z,73.80
2022-07-28T12:28:40.418Z,74.00
2022-07-28T12:31:14.996Z,74.40
2022-07-28T12:33:43.370Z,74.00
2022-07-28T12:36:11.921Z,73.90
2022-07-28T12:38:40.277Z,73.70
2022-07-28T12:41:15.912Z,73.40
2022-07-28T12:43:51.166Z,73.70
2022-07-28T12:46:28.220Z,73.80
2022-07-28T12:48:58.021Z,73.70
2022-07-28T12:51:35.279Z,73.40
2022-07-28T12:54:04.357Z,73.20
2022-07-28T12:56:32.997Z,73.40
2022-07-28T12:59:08.963Z,73.40
2022-07-28T13:01:52.209Z,73.50
2022-07-28T13:04:42.972Z,73.30
2022-07-28T13:07:13.216Z,73.90
2022-07-28T13:09:49.028Z,73.00
2022-07-28T13:12:23.005Z,73.00
2022-07-28T13:14:52.911Z,72.90
2022-07-28T13:17:23.678Z,73.20
2022-07-28T13:19:52.331Z,73.40
2022-07-28T13:22:28.577Z,73.10
2022-07-28T13:24:57.999Z,72.30
2022-07-28T13:27:26.708Z,72.00
2022-07-28T13:29:55.594Z,72.10
2022-07-28T13:32:25.309Z,72.10
2022-07-28T13:34:53.986Z,71.20
2022-07-28T13:37:22.413Z,72.00
2022-07-28T13:39:54.379Z,71.40
2022-07-28T13:42:23.643Z,71.30
2022-07-28T13:44:52.179Z,70.60
2022-07-28T13:47:20.976Z,70.40
2022-07-28T13:49:50.736Z,70.60
2022-07-28T13:52:32.843Z,70.60
2022-07-28T13:55:06.029Z,71.00
2022-07-28T13:57:36.496Z,71.60
2022-07-28T14:00:08.291Z,71.40
2022-07-28T14:02:37.414Z,71.10
2022-07-28T14:05:07.492Z,71.20
2022-07-28T14:07:39.862Z,70.50
2022-07-28T14:10:09.074Z,70.10
2022-07-28T14:12:37.618Z,70.70
2022-07-28T14:15:09.810Z,71.10
2022-07-28T14:17:43.461Z,71.10
2022-07-28T14:20:15.954Z,70.60
2022-07-28T14:22:46.471Z,70.60
2022-07-28T14:25:20.997Z,70.90
2022-07-28T14:27:51.499Z,70.00
2022-07-28T14:30:20.209Z,70.00
2022-07-28T14:32:48.751Z,69.30
2022-07-28T14:35:18.453Z,69.60
2022-07-28T14:40:39.146Z,69.50
2022-07-28T14:43:08.260Z,69.50
2022-07-28T14:46:00.457Z,69.70
2022-07-28T14:48:24.811Z,69.60
2022-07-28T14:50:55.527Z,70.00
2022-07-28T14:53:24.089Z,69.30
2022-07-28T14:55:56.025Z,69.40
2022-07-28T14:58:24.214Z,69.30
2022-07-28T15:00:52.482Z,69.40
2022-07-28T15:03:20.716Z,69.10
2022-07-28T15:05:48.970Z,69.00
2022-07-28T15:08:18.524Z,68.40
2022-07-28T15:10:48.948Z,68.00
2022-07-28T15:13:17.368Z,68.10
2022-07-28T15:15:45.734Z,68.10
2022-07-28T15:18:14.115Z,68.40
2022-07-28T15:20:43.310Z,68.30
2022-07-28T15:23:11.755Z,68.20
2022-07-28T15:25:42.811Z,68.30
2022-07-28T15:28:11.162Z,67.50
2022-07-28T15:30:51.438Z,66.60
2022-07-28T15:33:20.513Z,66.20
2022-07-28T15:35:57.713Z,66.70
2022-07-28T15:38:28.490Z,67.10
2022-07-28T15:40:59.870Z,66.40
2022-07-28T15:43:28.114Z,66.50
2022-07-28T15:45:57.524Z,66.00
2022-07-28T15:48:25.741Z,66.50
2022-07-28T15:50:53.853Z,64.90
2022-07-28T15:53:22.041Z,64.10
2022-07-28T15:55:51.532Z,65.00
2022-07-28T15:58:22.394Z,65.70
2022-07-28T16:00:51.291Z,66.00
2022-07-28T16:03:19.958Z,65.20
2022-07-28T16:05:49.947Z,63.80
2022-07-28T16:08:22.866Z,62.50
2022-07-28T16:10:54.445Z,62.30
2022-07-28T16:13:33.382Z,63.20
2022-07-28T16:16:05.580Z,63.10
2022-07-28T16:18:33.799Z,63.40
2022-07-28T16:21:01.924Z,62.10
2022-07-28T16:23:30.064Z,63.20
2022-07-28T16:25:58.149Z,63.40
2022-07-28T16:28:27.816Z,62.40
2022-07-28T16:30:56.520Z,62.20
2022-07-28T16:33:24.689Z,62.40
2022-07-28T16:35:53.345Z,61.80
2022-07-28T16:38:21.573Z,61.90
2022-07-28T16:40:49.932Z,61.50
2022-07-28T16:43:18.162Z,61.40
2022-07-28T16:45:47.683Z,60.00
2022-07-28T16:48:15.795Z,59.50
2022-07-28T16:50:46.223Z,60.20
2022-07-28T16:53:14.917Z,60.70
2022-07-28T16:55:43.051Z,60.40
2022-07-28T16:58:11.226Z,59.50
2022-07-28T17:00:39.355Z,59.10
2022-07-28T17:03:11.185Z,58.80
2022-07-28T17:05:39.479Z,58.50
2022-07-28T17:08:09.277Z,58.40
2022-07-28T17:10:42.046Z,59.40
2022-07-28T17:13:12.061Z,59.10
2022-07-28T17:15:41.497Z,59.30
2022-07-28T17:18:12.278Z,59.60
2022-07-28T17:20:42.106Z,58.20
2022-07-28T17:23:10.501Z,58.50
2022-07-28T17:26:16.103Z,57.80
2022-07-28T17:28:27.206Z,57.30
2022-07-28T17:30:55.572Z,57.60
2022-07-28T17:33:25.243Z,58.50
2022-07-28T17:35:55.135Z,58.90
2022-07-28T17:38:29.505Z,58.60
2022-07-28T17:41:03.931Z,58.80
2022-07-28T17:43:32.939Z,59.90
2022-07-28T17:46:01.339Z,59.40
2022-07-28T17:48:32.670Z,59.50
2022-07-28T17:51:00.792Z,59.30
2022-07-28T17:53:28.937Z,59.70
2022-07-28T17:56:00.900Z,59.70
2022-07-28T17:58:32.382Z,59.60
2022-07-28T18:01:09.273Z,60.30
2022-07-28T18:03:57.608Z,60.20
2022-07-28T18:06:29.633Z,60.30
2022-07-28T18:09:02.053Z,60.40
2022-07-28T18:11:58.016Z,60.40
2022-07-28T18:14:26.806Z,60.40
2022-07-28T18:16:55.839Z,61.00
2022-07-28T18:19:26.081Z,61.40
2022-07-28T18:21:54.279Z,62.00
2022-07-28T18:24:23.015Z,62.10
2022-07-28T18:26:53.124Z,62.20
2022-07-28T18:29:22.325Z,62.20
2022-07-28T18:31:53.134Z,62.40
2022-07-28T18:34:23.485Z,62.70
2022-07-28T18:36:56.054Z,62.70
2022-07-28T18:39:24.260Z,63.80
2022-07-28T18:41:55.960Z,63.10
2022-07-28T18:44:24.407Z,63.30
2022-07-28T18:46:52.878Z,63.60
2022-07-28T18:49:21.720Z,64.00
2022-07-28T18:51:50.428Z,64.20
2022-07-28T18:54:27.969Z,64.60
2022-07-28T18:56:56.547Z,64.60
2022-07-28T18:59:24.799Z,64.70
2022-07-28T19:01:53.140Z,64.90
2022-07-28T19:04:21.380Z,65.10
2022-07-28T19:06:50.481Z,65.50
2022-07-28T19:09:20.235Z,65.60
2022-07-28T19:11:48.783Z,65.90
2022-07-28T19:14:17.577Z,66.20
2022-07-28T19:16:46.272Z,66.50
2022-07-28T19:19:14.671Z,66.70
2022-07-28T19:21:43.445Z,67.10
2022-07-28T19:24:12.242Z,67.40
2022-07-28T19:26:43.365Z,67.40
2022-07-28T19:29:11.508Z,67.60
2022-07-28T19:31:41.389Z,68.00
2022-07-28T19:34:10.126Z,68.10
2022-07-28T19:36:38.689Z,68.50
2022-07-28T19:39:06.942Z,68.60
2022-07-28T19:41:35.152Z,68.80
2022-07-28T19:44:04.869Z,69.10
2022-07-28T19:46:33.123Z,69.80
2022-07-28T19:49:01.556Z,69.70
2022-07-28T19:51:29.761Z,69.90
2022-07-28T19:53:59.487Z,70.00
2022-07-28T19:56:31.451Z,70.20
2022-07-28T19:59:00.202Z,70.60
2022-07-28T20:01:30.664Z,71.10
2022-07-28T20:04:01.249Z,71.20
2022-07-28T20:06:32.545Z,71.50
2022-07-28T20:09:01.140Z,71.40
2022-07-28T20:11:29.891Z,71.90
2022-07-28T20:13:58.038Z,71.90
2022-07-28T20:16:26.447Z,71.90
2022-07-28T20:18:56.902Z,71.80
2022-07-28T20:21:26.320Z,72.00
2022-07-28T20:23:55.995Z,71.90
2022-07-28T20:26:25.981Z,71.90
2022-07-28T20:28:54.428Z,71.80
2022-07-28T20:31:22.706Z,72.00
2022-07-28T20:33:50.948Z,72.00
2022-07-28T20:36:20.433Z,72.10
2022-07-28T20:38:48.755Z,72.20
2022-07-28T20:41:17.520Z,72.50
2022-07-28T20:43:45.881Z,72.60
2022-07-28T20:46:14.123Z,72.60
2022-07-28T20:48:42.399Z,72.60
2022-07-28T20:51:10.788Z,72.70
2022-07-28T20:53:40.408Z,72.70
2022-07-28T20:56:08.551Z,73.70
2022-07-28T20:58:36.812Z,73.20
2022-07-28T21:01:05.159Z,73.30
2022-07-28T21:03:33.586Z,73.30
2022-07-28T21:06:01.865Z,73.50
2022-07-28T21:08:31.093Z,73.70
2022-07-28T21:11:00.983Z,74.00
2022-07-28T21:13:29.104Z,74.30
2022-07-28T21:15:57.420Z,74.30
2022-07-28T21:18:25.541Z,74.90
2022-07-28T21:20:53.683Z,75.00
2022-07-28T21:23:21.832Z,75.10
2022-07-28T21:25:51.354Z,75.00
2022-07-28T21:28:38.274Z,75.10
2022-07-28T21:31:06.421Z,75.10
2022-07-28T21:33:34.627Z,75.20
2022-07-28T21:36:02.818Z,76.00
2022-07-28T21:38:31.016Z,75.50
2022-07-28T21:40:59.290Z,75.40
2022-07-28T21:43:29.019Z,76.00
2022-07-28T21:45:57.380Z,76.00
2022-07-28T21:48:25.591Z,76.10
2022-07-28T21:50:54.705Z,76.20
2022-07-28T21:53:23.238Z,76.50
2022-07-28T21:55:53.048Z,76.60
2022-07-28T21:58:21.135Z,76.70
2022-07-28T22:00:50.796Z,76.70
2022-07-28T22:03:18.986Z,76.90
2022-07-28T22:05:47.427Z,76.90
2022-07-28T22:08:15.967Z,77.20
2022-07-28T22:10:44.131Z,77.40
2022-07-28T22:13:12.259Z,77.50
2022-07-28T22:15:40.517Z,77.70
2022-07-28T22:18:16.250Z,77.80
2022-07-28T22:20:45.105Z,77.90
2022-07-28T22:23:28.925Z,78.10
2022-07-28T22:25:58.219Z,78.30
2022-07-28T22:28:29.773Z,78.50
2022-07-28T22:31:08.631Z,78.60
2022-07-28T22:33:39.967Z,78.90
2022-07-28T22:36:09.388Z,78.80
2022-07-28T22:38:38.139Z,79.20
2022-07-28T22:41:06.322Z,79.40
2022-07-28T22:43:35.484Z,79.60
2022-07-28T22:46:03.962Z,79.80
2022-07-28T22:48:32.402Z,79.90
2022-07-28T22:51:01.913Z,79.90
2022-07-28T22:53:30.025Z,80.10
2022-07-28T22:55:58.651Z,80.30
2022-07-28T22:58:26.834Z,80.60
2022-07-28T23:00:54.958Z,80.50
2022-07-28T23:03:24.589Z,80.70
2022-07-28T23:05:58.177Z,80.90
2022-07-28T23:08:28.548Z,81.00
2022-07-28T23:10:56.836Z,81.40
2022-07-28T23:13:25.001Z,81.30
2022-07-28T23:15:53.180Z,82.50
2022-07-28T23:18:21.272Z,81.70
2022-07-28T23:20:49.756Z,82.10
2022-07-28T23:23:19.163Z,82.50
2022-07-28T23:25:48.787Z,82.40
2022-07-28T23:28:16.895Z,82.70
2022-07-28T23:30:47.285Z,82.70
2022-07-28T23:33:15.693Z,83.00
2022-07-28T23:36:03.546Z,83.30
2022-07-28T23:38:31.661Z,83.70
2022-07-28T23:41:01.260Z,84.10
2022-07-28T23:43:30.616Z,84.30
2022-07-28T23:45:58.839Z,84.60
2022-07-28T23:48:26.979Z,85.30
2022-07-28T23:50:55.089Z,84.90
2022-07-28T23:53:23.262Z,85.20
2022-07-28T23:55:51.314Z,85.10
2022-07-28T23:58:20.820Z,85.30
